sensor_id;sensor_type;location;lat;lon;timestamp;P1;durP1;ratioP1;P2;durP2;ratioP2
75645;SDS011;64237;52.438;13.240;2023-04-05T00:00:26;6.10;;;1.35;;
75645;SDS011;64237;52.438;13.240;2023-04-05T00:02:52;4.18;;;1.30;;
75645;SDS011;64237;52.438;13.240;2023-04-05T00:05:18;3.20;;;1.23;;
75645;SDS011;64237;52.438;13.240;2023-04-05T00:07:53;6.50;;;1.50;;
75645;SDS011;64237;52.438;13.240;2023-04-05T00:10:19;2.92;;;1.20;;
75645;SDS011;64237;52.438;13.240;2023-04-05T00:12:44;5.88;;;1.60;;
75645;SDS011;64237;52.438;13.240;2023-04-05T00:15:10;4.53;;;1.37;;
75645;SDS011;64237;52.438;13.240;2023-04-05T00:17:35;4.15;;;1.35;;
75645;SDS011;64237;52.438;13.240;2023-04-05T00:20:01;3.40;;;1.30;;
75645;SDS011;64237;52.438;13.240;2023-04-05T00:22:31;5.65;;;1.58;;
75645;SDS011;64237;52.438;13.240;2023-04-05T00:24:59;6.72;;;1.75;;
75645;SDS011;64237;52.438;13.240;2023-04-05T00:27:25;5.13;;;1.40;;
75645;SDS011;64237;52.438;13.240;2023-04-05T00:29:51;4.45;;;1.33;;
75645;SDS011;64237;52.438;13.240;2023-04-05T00:32:16;4.75;;;1.48;;
75645;SDS011;64237;52.438;13.240;2023-04-05T00:34:41;5.50;;;1.40;;
75645;SDS011;64237;52.438;13.240;2023-04-05T00:37:07;3.08;;;1.20;;
75645;SDS011;64237;52.438;13.240;2023-04-05T00:39:32;3.97;;;1.38;;
75645;SDS011;64237;52.438;13.240;2023-04-05T00:41:57;7.37;;;1.40;;
75645;SDS011;64237;52.438;13.240;2023-04-05T00:44:23;4.70;;;1.37;;
75645;SDS011;64237;52.438;13.240;2023-04-05T00:46:48;4.93;;;1.63;;
75645;SDS011;64237;52.438;13.240;2023-04-05T00:49:13;4.47;;;1.42;;
75645;SDS011;64237;52.438;13.240;2023-04-05T00:51:39;5.53;;;1.30;;
75645;SDS011;64237;52.438;13.240;2023-04-05T00:54:05;4.47;;;1.42;;
75645;SDS011;64237;52.438;13.240;2023-04-05T00:56:32;4.05;;;1.30;;
75645;SDS011;64237;52.438;13.240;2023-04-05T00:58:58;3.85;;;1.38;;
75645;SDS011;64237;52.438;13.240;2023-04-05T01:01:24;4.03;;;1.33;;
75645;SDS011;64237;52.438;13.240;2023-04-05T01:03:52;4.28;;;1.50;;
75645;SDS011;64237;52.438;13.240;2023-04-05T01:06:27;4.32;;;1.25;;
75645;SDS011;64237;52.438;13.240;2023-04-05T01:11:33;4.78;;;1.70;;
75645;SDS011;64237;52.438;13.240;2023-04-05T01:14:01;8.45;;;1.70;;
75645;SDS011;64237;52.438;13.240;2023-04-05T01:16:27;5.22;;;1.45;;
75645;SDS011;64237;52.438;13.240;2023-04-05T01:18:55;4.38;;;1.30;;
75645;SDS011;64237;52.438;13.240;2023-04-05T01:24:04;7.85;;;1.60;;
75645;SDS011;64237;52.438;13.240;2023-04-05T01:38:06;3.33;;;1.40;;
75645;SDS011;64237;52.438;13.240;2023-04-05T01:40:36;5.82;;;1.80;;
75645;SDS011;64237;52.438;13.240;2023-04-05T01:43:10;4.07;;;1.58;;
75645;SDS011;64237;52.438;13.240;2023-04-05T01:45:37;9.52;;;1.65;;
75645;SDS011;64237;52.438;13.240;2023-04-05T01:48:02;3.10;;;1.53;;
75645;SDS011;64237;52.438;13.240;2023-04-05T01:50:28;5.45;;;1.45;;
75645;SDS011;64237;52.438;13.240;2023-04-05T01:52:53;4.77;;;1.53;;
75645;SDS011;64237;52.438;13.240;2023-04-05T01:55:18;5.47;;;1.80;;
75645;SDS011;64237;52.438;13.240;2023-04-05T01:57:44;4.43;;;1.38;;
75645;SDS011;64237;52.438;13.240;2023-04-05T02:00:09;6.28;;;1.90;;
75645;SDS011;64237;52.438;13.240;2023-04-05T02:02:36;5.13;;;1.55;;
75645;SDS011;64237;52.438;13.240;2023-04-05T02:05:01;4.53;;;1.50;;
75645;SDS011;64237;52.438;13.240;2023-04-05T02:07:26;5.13;;;1.45;;
75645;SDS011;64237;52.438;13.240;2023-04-05T02:09:52;5.33;;;1.50;;
75645;SDS011;64237;52.438;13.240;2023-04-05T02:12:17;9.43;;;1.40;;
75645;SDS011;64237;52.438;13.240;2023-04-05T02:14:42;3.53;;;1.60;;
75645;SDS011;64237;52.438;13.240;2023-04-05T02:17:08;3.80;;;1.27;;
75645;SDS011;64237;52.438;13.240;2023-04-05T02:19:33;5.18;;;1.30;;
75645;SDS011;64237;52.438;13.240;2023-04-05T02:22:04;4.93;;;1.65;;
75645;SDS011;64237;52.438;13.240;2023-04-05T02:24:30;5.82;;;1.80;;
75645;SDS011;64237;52.438;13.240;2023-04-05T02:26:56;5.33;;;1.50;;
75645;SDS011;64237;52.438;13.240;2023-04-05T02:29:21;4.45;;;1.55;;
75645;SDS011;64237;52.438;13.240;2023-04-05T02:31:46;5.07;;;1.50;;
75645;SDS011;64237;52.438;13.240;2023-04-05T02:34:12;4.68;;;2.00;;
75645;SDS011;64237;52.438;13.240;2023-04-05T02:36:38;6.75;;;1.77;;
75645;SDS011;64237;52.438;13.240;2023-04-05T02:39:05;4.22;;;1.70;;
75645;SDS011;64237;52.438;13.240;2023-04-05T02:41:31;8.25;;;1.88;;
75645;SDS011;64237;52.438;13.240;2023-04-05T02:43:57;4.70;;;1.83;;
75645;SDS011;64237;52.438;13.240;2023-04-05T02:46:23;4.78;;;1.70;;
75645;SDS011;64237;52.438;13.240;2023-04-05T02:48:49;5.55;;;1.60;;
75645;SDS011;64237;52.438;13.240;2023-04-05T02:51:14;3.38;;;1.40;;
75645;SDS011;64237;52.438;13.240;2023-04-05T02:53:40;5.30;;;1.40;;
75645;SDS011;64237;52.438;13.240;2023-04-05T02:56:06;5.43;;;1.80;;
75645;SDS011;64237;52.438;13.240;2023-04-05T02:58:32;5.15;;;1.75;;
75645;SDS011;64237;52.438;13.240;2023-04-05T03:00:58;4.07;;;1.50;;
75645;SDS011;64237;52.438;13.240;2023-04-05T03:03:25;5.00;;;1.80;;
75645;SDS011;64237;52.438;13.240;2023-04-05T03:05:56;5.78;;;1.80;;
75645;SDS011;64237;52.438;13.240;2023-04-05T03:08:24;5.53;;;1.60;;
75645;SDS011;64237;52.438;13.240;2023-04-05T03:10:50;4.47;;;1.60;;
75645;SDS011;64237;52.438;13.240;2023-04-05T03:13:16;4.03;;;1.70;;
75645;SDS011;64237;52.438;13.240;2023-04-05T03:15:41;4.30;;;1.63;;
75645;SDS011;64237;52.438;13.240;2023-04-05T03:18:07;6.18;;;1.70;;
75645;SDS011;64237;52.438;13.240;2023-04-05T03:20:36;6.18;;;1.60;;
75645;SDS011;64237;52.438;13.240;2023-04-05T03:23:08;5.25;;;1.83;;
75645;SDS011;64237;52.438;13.240;2023-04-05T03:25:34;5.13;;;1.63;;
75645;SDS011;64237;52.438;13.240;2023-04-05T03:28:01;8.25;;;1.70;;
75645;SDS011;64237;52.438;13.240;2023-04-05T03:30:31;3.22;;;1.52;;
75645;SDS011;64237;52.438;13.240;2023-04-05T03:32:56;5.65;;;1.70;;
75645;SDS011;64237;52.438;13.240;2023-04-05T03:35:25;4.20;;;1.63;;
75645;SDS011;64237;52.438;13.240;2023-04-05T03:37:51;5.13;;;1.58;;
75645;SDS011;64237;52.438;13.240;2023-04-05T03:40:16;8.00;;;1.70;;
75645;SDS011;64237;52.438;13.240;2023-04-05T03:42:42;6.13;;;1.83;;
75645;SDS011;64237;52.438;13.240;2023-04-05T03:45:08;5.38;;;2.03;;
75645;SDS011;64237;52.438;13.240;2023-04-05T03:47:34;3.65;;;1.38;;
75645;SDS011;64237;52.438;13.240;2023-04-05T03:49:59;3.75;;;1.52;;
75645;SDS011;64237;52.438;13.240;2023-04-05T03:52:26;6.15;;;1.75;;
75645;SDS011;64237;52.438;13.240;2023-04-05T03:54:51;3.70;;;1.63;;
75645;SDS011;64237;52.438;13.240;2023-04-05T03:57:17;5.33;;;1.90;;
75645;SDS011;64237;52.438;13.240;2023-04-05T03:59:42;4.82;;;1.77;;
75645;SDS011;64237;52.438;13.240;2023-04-05T04:02:07;9.10;;;1.73;;
75645;SDS011;64237;52.438;13.240;2023-04-05T04:04:33;5.13;;;1.80;;
75645;SDS011;64237;52.438;13.240;2023-04-05T04:06:58;7.70;;;1.80;;
75645;SDS011;64237;52.438;13.240;2023-04-05T04:09:23;6.97;;;1.67;;
75645;SDS011;64237;52.438;13.240;2023-04-05T04:11:49;5.20;;;1.83;;
75645;SDS011;64237;52.438;13.240;2023-04-05T04:14:14;4.45;;;1.70;;
75645;SDS011;64237;52.438;13.240;2023-04-05T04:16:39;6.23;;;1.83;;
75645;SDS011;64237;52.438;13.240;2023-04-05T04:19:05;5.73;;;1.80;;
75645;SDS011;64237;52.438;13.240;2023-04-05T04:21:30;7.32;;;1.83;;
75645;SDS011;64237;52.438;13.240;2023-04-05T04:23:57;7.05;;;2.10;;
75645;SDS011;64237;52.438;13.240;2023-04-05T04:26:24;7.00;;;2.50;;
75645;SDS011;64237;52.438;13.240;2023-04-05T04:28:53;5.15;;;1.85;;
75645;SDS011;64237;52.438;13.240;2023-04-05T04:31:19;6.20;;;1.80;;
75645;SDS011;64237;52.438;13.240;2023-04-05T04:33:50;5.43;;;1.92;;
75645;SDS011;64237;52.438;13.240;2023-04-05T04:36:16;4.68;;;1.83;;
75645;SDS011;64237;52.438;13.240;2023-04-05T04:38:42;7.10;;;2.00;;
75645;SDS011;64237;52.438;13.240;2023-04-05T04:41:12;4.53;;;1.35;;
75645;SDS011;64237;52.438;13.240;2023-04-05T04:43:37;4.35;;;1.50;;
75645;SDS011;64237;52.438;13.240;2023-04-05T04:46:09;5.85;;;1.80;;
75645;SDS011;64237;52.438;13.240;2023-04-05T04:48:41;5.78;;;1.30;;
75645;SDS011;64237;52.438;13.240;2023-04-05T04:51:07;7.07;;;1.95;;
75645;SDS011;64237;52.438;13.240;2023-04-05T04:53:33;6.95;;;1.70;;
75645;SDS011;64237;52.438;13.240;2023-04-05T04:55:58;4.53;;;1.80;;
75645;SDS011;64237;52.438;13.240;2023-04-05T04:58:23;4.47;;;1.50;;
75645;SDS011;64237;52.438;13.240;2023-04-05T05:00:49;6.70;;;1.45;;
75645;SDS011;64237;52.438;13.240;2023-04-05T05:03:16;4.95;;;1.70;;
75645;SDS011;64237;52.438;13.240;2023-04-05T05:05:47;4.78;;;1.63;;
75645;SDS011;64237;52.438;13.240;2023-04-05T05:08:14;4.78;;;1.80;;
75645;SDS011;64237;52.438;13.240;2023-04-05T05:10:40;7.60;;;1.63;;
75645;SDS011;64237;52.438;13.240;2023-04-05T05:13:05;4.10;;;1.25;;
75645;SDS011;64237;52.438;13.240;2023-04-05T05:15:30;5.32;;;1.65;;
75645;SDS011;64237;52.438;13.240;2023-04-05T05:17:56;7.10;;;1.52;;
75645;SDS011;64237;52.438;13.240;2023-04-05T05:20:23;5.75;;;2.17;;
75645;SDS011;64237;52.438;13.240;2023-04-05T05:22:49;6.60;;;1.75;;
75645;SDS011;64237;52.438;13.240;2023-04-05T05:25:15;4.55;;;1.25;;
75645;SDS011;64237;52.438;13.240;2023-04-05T05:27:40;5.30;;;1.75;;
75645;SDS011;64237;52.438;13.240;2023-04-05T05:30:06;5.47;;;1.27;;
75645;SDS011;64237;52.438;13.240;2023-04-05T05:32:31;5.78;;;1.38;;
75645;SDS011;64237;52.438;13.240;2023-04-05T05:34:57;5.68;;;1.50;;
75645;SDS011;64237;52.438;13.240;2023-04-05T05:37:28;9.00;;;1.40;;
75645;SDS011;64237;52.438;13.240;2023-04-05T05:39:55;5.75;;;1.45;;
75645;SDS011;64237;52.438;13.240;2023-04-05T05:42:21;6.85;;;1.58;;
75645;SDS011;64237;52.438;13.240;2023-04-05T05:44:46;6.40;;;1.58;;
75645;SDS011;64237;52.438;13.240;2023-04-05T05:47:11;5.43;;;1.50;;
75645;SDS011;64237;52.438;13.240;2023-04-05T05:49:37;9.03;;;1.87;;
75645;SDS011;64237;52.438;13.240;2023-04-05T05:52:02;5.43;;;1.60;;
75645;SDS011;64237;52.438;13.240;2023-04-05T05:54:28;6.38;;;1.38;;
75645;SDS011;64237;52.438;13.240;2023-04-05T05:56:53;4.23;;;1.47;;
75645;SDS011;64237;52.438;13.240;2023-04-05T05:59:19;3.90;;;1.30;;
75645;SDS011;64237;52.438;13.240;2023-04-05T06:01:44;4.28;;;1.15;;
75645;SDS011;64237;52.438;13.240;2023-04-05T06:04:10;4.63;;;1.33;;
75645;SDS011;64237;52.438;13.240;2023-04-05T06:06:36;6.05;;;1.42;;
75645;SDS011;64237;52.438;13.240;2023-04-05T06:09:02;4.60;;;1.17;;
75645;SDS011;64237;52.438;13.240;2023-04-05T06:11:27;4.50;;;1.50;;
75645;SDS011;64237;52.438;13.240;2023-04-05T06:13:52;3.58;;;0.98;;
75645;SDS011;64237;52.438;13.240;2023-04-05T06:16:21;3.80;;;1.50;;
75645;SDS011;64237;52.438;13.240;2023-04-05T06:18:46;7.00;;;1.58;;
75645;SDS011;64237;52.438;13.240;2023-04-05T06:21:12;5.25;;;1.52;;
75645;SDS011;64237;52.438;13.240;2023-04-05T06:23:39;4.75;;;1.60;;
75645;SDS011;64237;52.438;13.240;2023-04-05T06:26:06;3.88;;;1.42;;
75645;SDS011;64237;52.438;13.240;2023-04-05T06:28:31;3.78;;;1.17;;
75645;SDS011;64237;52.438;13.240;2023-04-05T06:30:57;6.07;;;1.40;;
75645;SDS011;64237;52.438;13.240;2023-04-05T06:33:23;4.13;;;1.42;;
75645;SDS011;64237;52.438;13.240;2023-04-05T06:35:48;4.40;;;1.33;;
75645;SDS011;64237;52.438;13.240;2023-04-05T06:38:14;3.58;;;1.10;;
75645;SDS011;64237;52.438;13.240;2023-04-05T06:40:39;5.05;;;1.90;;
75645;SDS011;64237;52.438;13.240;2023-04-05T06:43:05;4.85;;;1.70;;
75645;SDS011;64237;52.438;13.240;2023-04-05T06:45:31;5.45;;;1.25;;
75645;SDS011;64237;52.438;13.240;2023-04-05T06:47:56;2.95;;;1.23;;
75645;SDS011;64237;52.438;13.240;2023-04-05T06:50:22;3.67;;;1.13;;
75645;SDS011;64237;52.438;13.240;2023-04-05T06:52:47;5.93;;;1.42;;
75645;SDS011;64237;52.438;13.240;2023-04-05T06:55:12;4.30;;;1.20;;
75645;SDS011;64237;52.438;13.240;2023-04-05T06:57:38;5.35;;;1.48;;
75645;SDS011;64237;52.438;13.240;2023-04-05T07:00:03;3.85;;;1.25;;
75645;SDS011;64237;52.438;13.240;2023-04-05T07:02:36;4.97;;;1.42;;
75645;SDS011;64237;52.438;13.240;2023-04-05T07:05:02;3.75;;;1.15;;
75645;SDS011;64237;52.438;13.240;2023-04-05T07:07:32;3.47;;;1.10;;
75645;SDS011;64237;52.438;13.240;2023-04-05T07:09:58;6.45;;;1.40;;
75645;SDS011;64237;52.438;13.240;2023-04-05T07:12:23;4.85;;;1.30;;
75645;SDS011;64237;52.438;13.240;2023-04-05T07:14:49;3.47;;;1.05;;
75645;SDS011;64237;52.438;13.240;2023-04-05T07:17:14;4.28;;;1.17;;
75645;SDS011;64237;52.438;13.240;2023-04-05T07:19:40;4.00;;;1.25;;
75645;SDS011;64237;52.438;13.240;2023-04-05T07:22:05;5.63;;;1.58;;
75645;SDS011;64237;52.438;13.240;2023-04-05T07:24:31;3.67;;;1.30;;
75645;SDS011;64237;52.438;13.240;2023-04-05T07:26:56;3.53;;;1.38;;
75645;SDS011;64237;52.438;13.240;2023-04-05T07:29:22;6.20;;;1.60;;
75645;SDS011;64237;52.438;13.240;2023-04-05T07:31:47;6.53;;;1.63;;
75645;SDS011;64237;52.438;13.240;2023-04-05T07:34:13;4.80;;;1.20;;
75645;SDS011;64237;52.438;13.240;2023-04-05T07:36:38;6.45;;;1.52;;
75645;SDS011;64237;52.438;13.240;2023-04-05T07:39:03;5.05;;;1.40;;
75645;SDS011;64237;52.438;13.240;2023-04-05T07:41:29;5.82;;;1.92;;
75645;SDS011;64237;52.438;13.240;2023-04-05T07:43:59;5.07;;;1.50;;
75645;SDS011;64237;52.438;13.240;2023-04-05T07:46:25;6.90;;;1.63;;
75645;SDS011;64237;52.438;13.240;2023-04-05T07:48:51;6.85;;;1.52;;
75645;SDS011;64237;52.438;13.240;2023-04-05T07:51:17;7.28;;;1.80;;
75645;SDS011;64237;52.438;13.240;2023-04-05T07:53:42;5.22;;;1.92;;
75645;SDS011;64237;52.438;13.240;2023-04-05T07:56:08;7.57;;;1.65;;
75645;SDS011;64237;52.438;13.240;2023-04-05T07:58:35;5.47;;;1.88;;
75645;SDS011;64237;52.438;13.240;2023-04-05T08:01:04;6.93;;;1.70;;
75645;SDS011;64237;52.438;13.240;2023-04-05T08:03:30;5.20;;;1.63;;
75645;SDS011;64237;52.438;13.240;2023-04-05T08:05:56;5.63;;;2.35;;
75645;SDS011;64237;52.438;13.240;2023-04-05T08:08:23;6.10;;;2.00;;
75645;SDS011;64237;52.438;13.240;2023-04-05T08:10:49;6.20;;;1.90;;
75645;SDS011;64237;52.438;13.240;2023-04-05T08:13:14;5.43;;;1.52;;
75645;SDS011;64237;52.438;13.240;2023-04-05T08:15:40;9.13;;;2.10;;
75645;SDS011;64237;52.438;13.240;2023-04-05T08:18:05;6.72;;;1.98;;
75645;SDS011;64237;52.438;13.240;2023-04-05T08:20:31;6.20;;;1.70;;
75645;SDS011;64237;52.438;13.240;2023-04-05T08:22:56;6.03;;;1.90;;
75645;SDS011;64237;52.438;13.240;2023-04-05T08:25:21;6.68;;;2.00;;
75645;SDS011;64237;52.438;13.240;2023-04-05T08:27:47;9.98;;;2.10;;
75645;SDS011;64237;52.438;13.240;2023-04-05T08:30:12;8.60;;;2.50;;
75645;SDS011;64237;52.438;13.240;2023-04-05T08:32:38;7.05;;;2.28;;
75645;SDS011;64237;52.438;13.240;2023-04-05T08:35:03;5.63;;;2.38;;
75645;SDS011;64237;52.438;13.240;2023-04-05T08:37:32;6.63;;;2.20;;
75645;SDS011;64237;52.438;13.240;2023-04-05T08:39:58;7.85;;;2.50;;
75645;SDS011;64237;52.438;13.240;2023-04-05T08:42:25;9.93;;;2.73;;
75645;SDS011;64237;52.438;13.240;2023-04-05T08:45:07;7.90;;;2.50;;
75645;SDS011;64237;52.438;13.240;2023-04-05T08:47:35;7.85;;;2.47;;
75645;SDS011;64237;52.438;13.240;2023-04-05T08:50:03;5.15;;;1.80;;
75645;SDS011;64237;52.438;13.240;2023-04-05T08:52:29;8.13;;;2.47;;
75645;SDS011;64237;52.438;13.240;2023-04-05T08:54:56;9.40;;;2.75;;
75645;SDS011;64237;52.438;13.240;2023-04-05T08:57:24;6.32;;;2.25;;
75645;SDS011;64237;52.438;13.240;2023-04-05T08:59:52;9.13;;;2.60;;
75645;SDS011;64237;52.438;13.240;2023-04-05T09:02:20;5.95;;;2.08;;
75645;SDS011;64237;52.438;13.240;2023-04-05T09:04:48;6.75;;;2.28;;
75645;SDS011;64237;52.438;13.240;2023-04-05T09:07:15;6.05;;;2.75;;
75645;SDS011;64237;52.438;13.240;2023-04-05T09:09:43;7.50;;;2.50;;
75645;SDS011;64237;52.438;13.240;2023-04-05T09:12:11;7.40;;;2.47;;
75645;SDS011;64237;52.438;13.240;2023-04-05T09:14:38;5.47;;;1.83;;
75645;SDS011;64237;52.438;13.240;2023-04-05T09:17:05;6.38;;;2.17;;
75645;SDS011;64237;52.438;13.240;2023-04-05T09:19:30;5.57;;;2.10;;
75645;SDS011;64237;52.438;13.240;2023-04-05T09:21:59;6.18;;;2.28;;
75645;SDS011;64237;52.438;13.240;2023-04-05T09:27:08;7.57;;;2.42;;
75645;SDS011;64237;52.438;13.240;2023-04-05T09:29:39;6.80;;;2.33;;
75645;SDS011;64237;52.438;13.240;2023-04-05T09:32:06;6.15;;;1.70;;
75645;SDS011;64237;52.438;13.240;2023-04-05T09:34:33;7.55;;;2.55;;
75645;SDS011;64237;52.438;13.240;2023-04-05T09:37:10;7.20;;;2.53;;
75645;SDS011;64237;52.438;13.240;2023-04-05T09:39:37;5.75;;;2.30;;
75645;SDS011;64237;52.438;13.240;2023-04-05T09:42:07;8.32;;;2.35;;
75645;SDS011;64237;52.438;13.240;2023-04-05T09:47:27;7.47;;;2.45;;
75645;SDS011;64237;52.438;13.240;2023-04-05T09:49:58;9.73;;;2.25;;
75645;SDS011;64237;52.438;13.240;2023-04-05T09:52:30;6.63;;;2.00;;
75645;SDS011;64237;52.438;13.240;2023-04-05T09:54:57;6.57;;;2.35;;
75645;SDS011;64237;52.438;13.240;2023-04-05T09:57:27;5.68;;;2.17;;
75645;SDS011;64237;52.438;13.240;2023-04-05T09:59:54;7.55;;;2.38;;
75645;SDS011;64237;52.438;13.240;2023-04-05T10:02:20;5.82;;;2.25;;
75645;SDS011;64237;52.438;13.240;2023-04-05T10:04:46;5.53;;;1.77;;
75645;SDS011;64237;52.438;13.240;2023-04-05T10:07:14;5.88;;;2.03;;
75645;SDS011;64237;52.438;13.240;2023-04-05T10:09:41;6.05;;;2.30;;
75645;SDS011;64237;52.438;13.240;2023-04-05T10:12:26;5.57;;;2.20;;
75645;SDS011;64237;52.438;13.240;2023-04-05T10:14:52;7.03;;;2.20;;
75645;SDS011;64237;52.438;13.240;2023-04-05T10:20:13;6.20;;;2.05;;
75645;SDS011;64237;52.438;13.240;2023-04-05T10:34:30;7.43;;;1.92;;
75645;SDS011;64237;52.438;13.240;2023-04-05T10:37:06;5.93;;;1.90;;
75645;SDS011;64237;52.438;13.240;2023-04-05T10:39:44;4.93;;;2.13;;
75645;SDS011;64237;52.438;13.240;2023-04-05T10:42:18;5.90;;;2.10;;
75645;SDS011;64237;52.438;13.240;2023-04-05T10:44:45;4.78;;;1.63;;
75645;SDS011;64237;52.438;13.240;2023-04-05T10:47:16;5.53;;;1.70;;
75645;SDS011;64237;52.438;13.240;2023-04-05T10:49:48;5.88;;;1.85;;
75645;SDS011;64237;52.438;13.240;2023-04-05T10:52:16;4.80;;;1.75;;
75645;SDS011;64237;52.438;13.240;2023-04-05T10:54:42;4.43;;;1.77;;
75645;SDS011;64237;52.438;13.240;2023-04-05T10:57:08;5.35;;;1.95;;
75645;SDS011;64237;52.438;13.240;2023-04-05T10:59:34;4.90;;;1.80;;
75645;SDS011;64237;52.438;13.240;2023-04-05T11:04:29;9.15;;;2.00;;
75645;SDS011;64237;52.438;13.240;2023-04-05T11:07:10;9.10;;;2.05;;
75645;SDS011;64237;52.438;13.240;2023-04-05T11:09:49;4.95;;;1.73;;
75645;SDS011;64237;52.438;13.240;2023-04-05T11:12:20;6.53;;;2.20;;
75645;SDS011;64237;52.438;13.240;2023-04-05T11:20:51;5.20;;;2.17;;
75645;SDS011;64237;52.438;13.240;2023-04-05T11:23:20;6.80;;;2.47;;
75645;SDS011;64237;52.438;13.240;2023-04-05T11:25:50;6.47;;;1.52;;
75645;SDS011;64237;52.438;13.240;2023-04-05T11:28:23;5.80;;;1.90;;
75645;SDS011;64237;52.438;13.240;2023-04-05T11:30:55;4.93;;;1.85;;
75645;SDS011;64237;52.438;13.240;2023-04-05T11:33:38;4.00;;;1.70;;
75645;SDS011;64237;52.438;13.240;2023-04-05T11:41:46;4.03;;;1.60;;
75645;SDS011;64237;52.438;13.240;2023-04-05T11:44:18;5.72;;;1.73;;
75645;SDS011;64237;52.438;13.240;2023-04-05T11:46:45;4.78;;;1.48;;
75645;SDS011;64237;52.438;13.240;2023-04-05T11:49:11;5.10;;;1.95;;
75645;SDS011;64237;52.438;13.240;2023-04-05T11:51:38;5.43;;;1.80;;
75645;SDS011;64237;52.438;13.240;2023-04-05T11:54:06;4.55;;;1.70;;
75645;SDS011;64237;52.438;13.240;2023-04-05T11:56:32;7.78;;;2.20;;
75645;SDS011;64237;52.438;13.240;2023-04-05T11:58:57;4.73;;;2.17;;
75645;SDS011;64237;52.438;13.240;2023-04-05T12:01:23;4.13;;;2.20;;
75645;SDS011;64237;52.438;13.240;2023-04-05T12:03:52;5.15;;;1.60;;
75645;SDS011;64237;52.438;13.240;2023-04-05T12:06:20;4.35;;;1.48;;
75645;SDS011;64237;52.438;13.240;2023-04-05T12:08:47;4.88;;;1.67;;
75645;SDS011;64237;52.438;13.240;2023-04-05T12:11:24;4.18;;;1.30;;
75645;SDS011;64237;52.438;13.240;2023-04-05T12:13:54;5.20;;;1.60;;
75645;SDS011;64237;52.438;13.240;2023-04-05T12:16:22;6.38;;;1.50;;
75645;SDS011;64237;52.438;13.240;2023-04-05T12:18:52;4.70;;;1.80;;
75645;SDS011;64237;52.438;13.240;2023-04-05T12:21:18;4.68;;;1.50;;
75645;SDS011;64237;52.438;13.240;2023-04-05T12:23:44;5.63;;;1.45;;
75645;SDS011;64237;52.438;13.240;2023-04-05T12:26:10;6.00;;;1.60;;
75645;SDS011;64237;52.438;13.240;2023-04-05T12:28:51;4.63;;;1.50;;
75645;SDS011;64237;52.438;13.240;2023-04-05T12:31:51;7.22;;;2.25;;
75645;SDS011;64237;52.438;13.240;2023-04-05T12:34:14;5.78;;;2.05;;
75645;SDS011;64237;52.438;13.240;2023-04-05T12:36:47;6.95;;;1.88;;
75645;SDS011;64237;52.438;13.240;2023-04-05T12:39:14;6.43;;;1.67;;
75645;SDS011;64237;52.438;13.240;2023-04-05T12:41:40;5.03;;;1.75;;
75645;SDS011;64237;52.438;13.240;2023-04-05T12:44:15;4.50;;;2.00;;
75645;SDS011;64237;52.438;13.240;2023-04-05T12:46:51;4.25;;;1.65;;
75645;SDS011;64237;52.438;13.240;2023-04-05T12:49:24;7.10;;;1.60;;
75645;SDS011;64237;52.438;13.240;2023-04-05T12:51:52;4.13;;;1.90;;
75645;SDS011;64237;52.438;13.240;2023-04-05T12:54:20;5.83;;;1.90;;
75645;SDS011;64237;52.438;13.240;2023-04-05T12:56:50;5.45;;;1.85;;
75645;SDS011;64237;52.438;13.240;2023-04-05T12:59:19;5.15;;;2.00;;
75645;SDS011;64237;52.438;13.240;2023-04-05T13:01:45;6.68;;;2.00;;
75645;SDS011;64237;52.438;13.240;2023-04-05T13:04:11;4.28;;;1.60;;
75645;SDS011;64237;52.438;13.240;2023-04-05T13:06:36;5.90;;;2.20;;
75645;SDS011;64237;52.438;13.240;2023-04-05T13:09:02;9.05;;;2.42;;
75645;SDS011;64237;52.438;13.240;2023-04-05T13:11:27;9.55;;;2.42;;
75645;SDS011;64237;52.438;13.240;2023-04-05T13:13:52;5.70;;;1.85;;
75645;SDS011;64237;52.438;13.240;2023-04-05T13:16:18;4.70;;;1.70;;
75645;SDS011;64237;52.438;13.240;2023-04-05T13:18:43;4.57;;;1.83;;
75645;SDS011;64237;52.438;13.240;2023-04-05T13:21:09;6.47;;;2.00;;
75645;SDS011;64237;52.438;13.240;2023-04-05T13:23:35;5.22;;;1.70;;
75645;SDS011;64237;52.438;13.240;2023-04-05T13:26:04;4.10;;;1.70;;
75645;SDS011;64237;52.438;13.240;2023-04-05T13:28:30;4.97;;;1.85;;
75645;SDS011;64237;52.438;13.240;2023-04-05T13:30:55;5.82;;;1.80;;
75645;SDS011;64237;52.438;13.240;2023-04-05T13:33:21;5.78;;;1.85;;
75645;SDS011;64237;52.438;13.240;2023-04-05T13:35:46;3.65;;;1.63;;
75645;SDS011;64237;52.438;13.240;2023-04-05T13:38:12;6.30;;;2.05;;
75645;SDS011;64237;52.438;13.240;2023-04-05T13:40:37;6.13;;;2.20;;
75645;SDS011;64237;52.438;13.240;2023-04-05T13:43:03;4.18;;;1.60;;
75645;SDS011;64237;52.438;13.240;2023-04-05T13:45:28;4.50;;;1.40;;
75645;SDS011;64237;52.438;13.240;2023-04-05T13:47:56;4.93;;;1.70;;
75645;SDS011;64237;52.438;13.240;2023-04-05T13:50:22;5.55;;;1.90;;
75645;SDS011;64237;52.438;13.240;2023-04-05T13:52:47;5.03;;;1.73;;
75645;SDS011;64237;52.438;13.240;2023-04-05T13:55:13;6.22;;;1.70;;
75645;SDS011;64237;52.438;13.240;2023-04-05T13:57:38;5.15;;;2.00;;
75645;SDS011;64237;52.438;13.240;2023-04-05T14:00:07;5.23;;;1.70;;
75645;SDS011;64237;52.438;13.240;2023-04-05T14:02:32;4.50;;;1.75;;
75645;SDS011;64237;52.438;13.240;2023-04-05T14:04:58;4.50;;;1.70;;
75645;SDS011;64237;52.438;13.240;2023-04-05T14:07:23;6.10;;;2.47;;
75645;SDS011;64237;52.438;13.240;2023-04-05T14:09:58;6.93;;;2.42;;
75645;SDS011;64237;52.438;13.240;2023-04-05T14:14:58;5.85;;;1.98;;
75645;SDS011;64237;52.438;13.240;2023-04-05T14:17:24;7.30;;;1.92;;
75645;SDS011;64237;52.438;13.240;2023-04-05T14:19:49;8.13;;;2.20;;
75645;SDS011;64237;52.438;13.240;2023-04-05T14:22:15;6.05;;;2.13;;
75645;SDS011;64237;52.438;13.240;2023-04-05T14:24:40;4.05;;;1.50;;
75645;SDS011;64237;52.438;13.240;2023-04-05T14:27:06;7.07;;;1.73;;
75645;SDS011;64237;52.438;13.240;2023-04-05T14:29:31;6.93;;;2.10;;
75645;SDS011;64237;52.438;13.240;2023-04-05T14:32:00;5.07;;;2.00;;
75645;SDS011;64237;52.438;13.240;2023-04-05T14:34:25;3.53;;;1.75;;
75645;SDS011;64237;52.438;13.240;2023-04-05T14:36:50;6.85;;;1.90;;
75645;SDS011;64237;52.438;13.240;2023-04-05T14:39:16;5.93;;;2.10;;
75645;SDS011;64237;52.438;13.240;2023-04-05T14:41:41;5.38;;;1.83;;
75645;SDS011;64237;52.438;13.240;2023-04-05T14:44:08;4.63;;;1.70;;
75645;SDS011;64237;52.438;13.240;2023-04-05T14:46:33;5.88;;;1.95;;
75645;SDS011;64237;52.438;13.240;2023-04-05T14:48:58;4.43;;;1.88;;
75645;SDS011;64237;52.438;13.240;2023-04-05T14:51:24;4.85;;;1.80;;
75645;SDS011;64237;52.438;13.240;2023-04-05T14:53:50;4.78;;;2.05;;
75645;SDS011;64237;52.438;13.240;2023-04-05T14:56:16;5.43;;;1.75;;
75645;SDS011;64237;52.438;13.240;2023-04-05T14:58:41;5.80;;;2.03;;
75645;SDS011;64237;52.438;13.240;2023-04-05T15:01:06;7.72;;;2.03;;
75645;SDS011;64237;52.438;13.240;2023-04-05T15:03:34;6.00;;;1.85;;
75645;SDS011;64237;52.438;13.240;2023-04-05T15:05:59;4.45;;;1.98;;
75645;SDS011;64237;52.438;13.240;2023-04-05T15:08:24;5.65;;;1.80;;
75645;SDS011;64237;52.438;13.240;2023-04-05T15:10:50;10.40;;;1.90;;
75645;SDS011;64237;52.438;13.240;2023-04-05T15:13:15;4.95;;;1.70;;
75645;SDS011;64237;52.438;13.240;2023-04-05T15:15:43;4.63;;;1.65;;
75645;SDS011;64237;52.438;13.240;2023-04-05T15:18:09;4.90;;;1.63;;
75645;SDS011;64237;52.438;13.240;2023-04-05T15:20:34;4.80;;;1.67;;
75645;SDS011;64237;52.438;13.240;2023-04-05T15:23:00;4.57;;;1.60;;
75645;SDS011;64237;52.438;13.240;2023-04-05T15:25:25;5.70;;;1.70;;